sensor_id;sensor_type;location;lat;lon;timestamp;temperature;humidity
17178;DHT22;8704;52.006;4.374;2022-12-24T00:01:26;9.50;99.90
17178;DHT22;8704;52.006;4.374;2022-12-24T00:03:58;9.40;99.90
17178;DHT22;8704;52.006;4.374;2022-12-24T00:06:27;9.40;99.90
17178;DHT22;8704;52.006;4.374;2022-12-24T00:08:55;9.40;99.90
17178;DHT22;8704;52.006;4.374;2022-12-24T00:11:23;9.40;99.90
17178;DHT22;8704;52.006;4.374;2022-12-24T00:13:51;9.40;99.90
17178;DHT22;8704;52.006;4.374;2022-12-24T00:16:19;9.20;99.90
17178;DHT22;8704;52.006;4.374;2022-12-24T00:18:47;10.20;99.90
17178;DHT22;8704;52.006;4.374;2022-12-24T00:21:15;9.20;99.90
17178;DHT22;8704;52.006;4.374;2022-12-24T00:23:45;9.20;99.90
17178;DHT22;8704;52.006;4.374;2022-12-24T00:26:13;9.30;99.90
17178;DHT22;8704;52.006;4.374;2022-12-24T00:28:41;9.20;99.90
17178;DHT22;8704;52.006;4.374;2022-12-24T00:31:11;9.10;99.90
17178;DHT22;8704;52.006;4.374;2022-12-24T00:33:40;9.20;99.90
17178;DHT22;8704;52.006;4.374;2022-12-24T00:36:09;9.10;99.90
17178;DHT22;8704;52.006;4.374;2022-12-24T00:38:37;9.10;99.90
17178;DHT22;8704;52.006;4.374;2022-12-24T00:41:08;9.10;99.90
17178;DHT22;8704;52.006;4.374;2022-12-24T00:43:51;9.10;99.90
17178;DHT22;8704;52.006;4.374;2022-12-24T00:46:20;9.00;99.90
17178;DHT22;8704;52.006;4.374;2022-12-24T00:48:49;9.10;99.90
17178;DHT22;8704;52.006;4.374;2022-12-24T00:51:17;9.00;99.90
17178;DHT22;8704;52.006;4.374;2022-12-24T00:53:46;9.00;99.90
17178;DHT22;8704;52.006;4.374;2022-12-24T00:56:15;9.00;99.90
17178;DHT22;8704;52.006;4.374;2022-12-24T00:58:43;8.90;99.90
17178;DHT22;8704;52.006;4.374;2022-12-24T01:01:12;8.90;99.90
17178;DHT22;8704;52.006;4.374;2022-12-24T01:03:40;8.90;99.90
17178;DHT22;8704;52.006;4.374;2022-12-24T01:06:10;8.80;99.90
17178;DHT22;8704;52.006;4.374;2022-12-24T01:08:38;8.80;99.90
17178;DHT22;8704;52.006;4.374;2022-12-24T01:11:07;8.70;99.90
17178;DHT22;8704;52.006;4.374;2022-12-24T01:13:37;8.80;99.90
17178;DHT22;8704;52.006;4.374;2022-12-24T01:16:13;8.70;99.90
17178;DHT22;8704;52.006;4.374;2022-12-24T01:18:42;8.70;99.90
17178;DHT22;8704;52.006;4.374;2022-12-24T01:21:10;8.70;99.90
17178;DHT22;8704;52.006;4.374;2022-12-24T01:23:38;8.70;99.90
17178;DHT22;8704;52.006;4.374;2022-12-24T01:26:06;8.60;99.90
17178;DHT22;8704;52.006;4.374;2022-12-24T01:28:34;8.60;99.90
17178;DHT22;8704;52.006;4.374;2022-12-24T01:31:09;8.60;99.90
17178;DHT22;8704;52.006;4.374;2022-12-24T01:33:37;8.60;99.90
17178;DHT22;8704;52.006;4.374;2022-12-24T01:36:06;8.60;99.90
17178;DHT22;8704;52.006;4.374;2022-12-24T01:38:34;8.50;99.90
17178;DHT22;8704;52.006;4.374;2022-12-24T01:41:02;8.60;99.90
17178;DHT22;8704;52.006;4.374;2022-12-24T01:43:47;8.50;99.90
17178;DHT22;8704;52.006;4.374;2022-12-24T01:46:19;8.50;99.90
17178;DHT22;8704;52.006;4.374;2022-12-24T01:48:53;8.50;99.90
17178;DHT22;8704;52.006;4.374;2022-12-24T01:51:26;8.50;99.90
17178;DHT22;8704;52.006;4.374;2022-12-24T01:54:00;8.50;99.90
17178;DHT22;8704;52.006;4.374;2022-12-24T01:56:30;8.50;99.90
17178;DHT22;8704;52.006;4.374;2022-12-24T01:59:02;8.60;99.90
17178;DHT22;8704;52.006;4.374;2022-12-24T02:01:32;8.40;99.90
17178;DHT22;8704;52.006;4.374;2022-12-24T02:04:07;8.40;99.90
17178;DHT22;8704;52.006;4.374;2022-12-24T02:06:38;8.40;99.90
17178;DHT22;8704;52.006;4.374;2022-12-24T02:09:06;8.40;99.90
17178;DHT22;8704;52.006;4.374;2022-12-24T02:11:36;8.30;99.90
17178;DHT22;8704;52.006;4.374;2022-12-24T02:14:06;8.40;99.90
17178;DHT22;8704;52.006;4.374;2022-12-24T02:16:42;8.40;99.90
17178;DHT22;8704;52.006;4.374;2022-12-24T02:19:29;8.40;99.90
17178;DHT22;8704;52.006;4.374;2022-12-24T02:22:02;8.40;99.90
17178;DHT22;8704;52.006;4.374;2022-12-24T02:24:55;8.80;99.90
17178;DHT22;8704;52.006;4.374;2022-12-24T02:27:41;8.50;99.90
17178;DHT22;8704;52.006;4.374;2022-12-24T02:30:16;9.50;99.90
17178;DHT22;8704;52.006;4.374;2022-12-24T02:32:58;8.70;99.90
17178;DHT22;8704;52.006;4.374;2022-12-24T02:35:35;8.60;99.90
17178;DHT22;8704;52.006;4.374;2022-12-24T02:38:09;9.10;99.90
17178;DHT22;8704;52.006;4.374;2022-12-24T02:40:43;8.60;99.90
17178;DHT22;8704;52.006;4.374;2022-12-24T02:43:17;8.60;99.90
17178;DHT22;8704;52.006;4.374;2022-12-24T02:45:52;9.10;99.90
17178;DHT22;8704;52.006;4.374;2022-12-24T02:48:25;8.70;99.90
17178;DHT22;8704;52.006;4.374;2022-12-24T02:51:01;8.70;99.90
17178;DHT22;8704;52.006;4.374;2022-12-24T02:53:30;8.70;99.90
17178;DHT22;8704;52.006;4.374;2022-12-24T02:56:25;8.70;99.90
17178;DHT22;8704;52.006;4.374;2022-12-24T02:59:29;8.70;99.90
17178;DHT22;8704;52.006;4.374;2022-12-24T03:02:08;8.70;99.90
17178;DHT22;8704;52.006;4.374;2022-12-24T03:04:46;8.70;99.90
17178;DHT22;8704;52.006;4.374;2022-12-24T03:07:20;8.60;99.90
17178;DHT22;8704;52.006;4.374;2022-12-24T03:09:57;8.70;99.90
17178;DHT22;8704;52.006;4.374;2022-12-24T03:12:32;8.70;99.90
17178;DHT22;8704;52.006;4.374;2022-12-24T03:15:02;9.30;99.90
17178;DHT22;8704;52.006;4.374;2022-12-24T03:17:34;8.70;99.90
17178;DHT22;8704;52.006;4.374;2022-12-24T03:20:05;8.70;99.90
17178;DHT22;8704;52.006;4.374;2022-12-24T03:22:35;8.70;99.90
17178;DHT22;8704;52.006;4.374;2022-12-24T03:25:04;8.80;99.90
17178;DHT22;8704;52.006;4.374;2022-12-24T03:27:34;8.80;99.90
17178;DHT22;8704;52.006;4.374;2022-12-24T03:30:03;8.80;99.90
17178;DHT22;8704;52.006;4.374;2022-12-24T03:32:36;8.80;99.90
17178;DHT22;8704;52.006;4.374;2022-12-24T03:35:04;8.80;99.90
17178;DHT22;8704;52.006;4.374;2022-12-24T03:37:32;8.80;99.90
17178;DHT22;8704;52.006;4.374;2022-12-24T03:40:00;8.80;99.90
17178;DHT22;8704;52.006;4.374;2022-12-24T03:42:28;8.80;99.90
17178;DHT22;8704;52.006;4.374;2022-12-24T03:44:56;8.90;99.90
17178;DHT22;8704;52.006;4.374;2022-12-24T03:47:24;9.10;99.90
17178;DHT22;8704;52.006;4.374;2022-12-24T03:49:54;8.90;99.90
17178;DHT22;8704;52.006;4.374;2022-12-24T03:52:22;8.90;99.90
17178;DHT22;8704;52.006;4.374;2022-12-24T03:54:50;9.00;99.90
17178;DHT22;8704;52.006;4.374;2022-12-24T03:57:18;9.50;99.90
17178;DHT22;8704;52.006;4.374;2022-12-24T03:59:46;9.80;99.90
17178;DHT22;8704;52.006;4.374;2022-12-24T04:02:14;9.00;99.90
17178;DHT22;8704;52.006;4.374;2022-12-24T04:04:42;9.00;99.90
17178;DHT22;8704;52.006;4.374;2022-12-24T04:07:11;9.00;99.90
17178;DHT22;8704;52.006;4.374;2022-12-24T04:09:39;9.00;99.90
17178;DHT22;8704;52.006;4.374;2022-12-24T04:12:07;9.00;99.90
17178;DHT22;8704;52.006;4.374;2022-12-24T04:14:35;9.00;99.90
17178;DHT22;8704;52.006;4.374;2022-12-24T04:17:03;9.00;99.90
17178;DHT22;8704;52.006;4.374;2022-12-24T04:19:32;9.00;99.90
17178;DHT22;8704;52.006;4.374;2022-12-24T04:22:00;9.00;99.90
17178;DHT22;8704;52.006;4.374;2022-12-24T04:24:29;9.10;99.90
17178;DHT22;8704;52.006;4.374;2022-12-24T04:26:57;9.10;99.90
17178;DHT22;8704;52.006;4.374;2022-12-24T04:29:25;9.30;99.90
17178;DHT22;8704;52.006;4.374;2022-12-24T04:31:53;9.00;99.90
17178;DHT22;8704;52.006;4.374;2022-12-24T04:34:21;9.20;99.90
17178;DHT22;8704;52.006;4.374;2022-12-24T04:36:49;9.10;99.90
17178;DHT22;8704;52.006;4.374;2022-12-24T04:39:17;9.10;99.90
17178;DHT22;8704;52.006;4.374;2022-12-24T04:41:47;9.10;99.90
17178;DHT22;8704;52.006;4.374;2022-12-24T04:44:15;10.00;99.90
17178;DHT22;8704;52.006;4.374;2022-12-24T04:46:43;9.10;99.90
17178;DHT22;8704;52.006;4.374;2022-12-24T04:49:11;9.20;99.90
17178;DHT22;8704;52.006;4.374;2022-12-24T04:51:39;9.10;99.90
17178;DHT22;8704;52.006;4.374;2022-12-24T04:54:07;9.20;99.90
17178;DHT22;8704;52.006;4.374;2022-12-24T04:56:35;9.20;99.90
17178;DHT22;8704;52.006;4.374;2022-12-24T04:59:04;9.60;99.90
17178;DHT22;8704;52.006;4.374;2022-12-24T05:01:32;9.20;99.90
17178;DHT22;8704;52.006;4.374;2022-12-24T05:04:00;9.40;99.90
17178;DHT22;8704;52.006;4.374;2022-12-24T05:06:30;9.20;99.90
17178;DHT22;8704;52.006;4.374;2022-12-24T05:08:59;9.20;99.90
17178;DHT22;8704;52.006;4.374;2022-12-24T05:11:27;9.20;99.90
17178;DHT22;8704;52.006;4.374;2022-12-24T05:13:56;9.10;99.90
17178;DHT22;8704;52.006;4.374;2022-12-24T05:16:25;9.20;99.90
17178;DHT22;8704;52.006;4.374;2022-12-24T05:18:53;9.20;99.90
17178;DHT22;8704;52.006;4.374;2022-12-24T05:21:23;9.20;99.90
17178;DHT22;8704;52.006;4.374;2022-12-24T05:23:51;9.70;99.90
17178;DHT22;8704;52.006;4.374;2022-12-24T05:26:39;9.20;99.90
17178;DHT22;8704;52.006;4.374;2022-12-24T05:29:09;9.20;99.90
17178;DHT22;8704;52.006;4.374;2022-12-24T05:31:40;9.10;99.90
17178;DHT22;8704;52.006;4.374;2022-12-24T05:34:09;9.60;99.90
17178;DHT22;8704;52.006;4.374;2022-12-24T05:36:37;9.10;99.90
17178;DHT22;8704;52.006;4.374;2022-12-24T05:39:06;9.10;99.90
17178;DHT22;8704;52.006;4.374;2022-12-24T05:41:41;9.10;99.90
17178;DHT22;8704;52.006;4.374;2022-12-24T05:44:09;9.10;99.90
17178;DHT22;8704;52.006;4.374;2022-12-24T05:46:37;9.10;99.90
17178;DHT22;8704;52.006;4.374;2022-12-24T05:49:07;9.10;99.90
17178;DHT22;8704;52.006;4.374;2022-12-24T05:51:35;9.00;99.90
17178;DHT22;8704;52.006;4.374;2022-12-24T05:54:03;9.00;99.90
17178;DHT22;8704;52.006;4.374;2022-12-24T05:56:32;8.90;99.90
17178;DHT22;8704;52.006;4.374;2022-12-24T05:59:00;8.90;99.90
17178;DHT22;8704;52.006;4.374;2022-12-24T06:01:28;8.90;99.90
17178;DHT22;8704;52.006;4.374;2022-12-24T06:03:56;8.80;99.90
17178;DHT22;8704;52.006;4.374;2022-12-24T06:06:27;8.80;99.90
17178;DHT22;8704;52.006;4.374;2022-12-24T06:08:55;8.90;99.90
17178;DHT22;8704;52.006;4.374;2022-12-24T06:11:25;8.90;99.90
17178;DHT22;8704;52.006;4.374;2022-12-24T06:13:54;8.80;99.90
17178;DHT22;8704;52.006;4.374;2022-12-24T06:16:23;8.80;99.90
17178;DHT22;8704;52.006;4.374;2022-12-24T06:18:52;8.70;99.90
17178;DHT22;8704;52.006;4.374;2022-12-24T06:21:20;8.70;99.90
17178;DHT22;8704;52.006;4.374;2022-12-24T06:23:50;8.70;99.90
17178;DHT22;8704;52.006;4.374;2022-12-24T06:26:19;8.70;99.90
17178;DHT22;8704;52.006;4.374;2022-12-24T06:28:49;8.70;99.90
17178;DHT22;8704;52.006;4.374;2022-12-24T06:31:19;8.70;99.90
17178;DHT22;8704;52.006;4.374;2022-12-24T06:33:48;8.70;99.90
17178;DHT22;8704;52.006;4.374;2022-12-24T06:36:18;8.70;99.90
17178;DHT22;8704;52.006;4.374;2022-12-24T06:38:47;9.50;99.90
17178;DHT22;8704;52.006;4.374;2022-12-24T06:41:17;8.60;99.90
17178;DHT22;8704;52.006;4.374;2022-12-24T06:43:46;8.60;99.90
17178;DHT22;8704;52.006;4.374;2022-12-24T06:46:16;8.50;99.90
17178;DHT22;8704;52.006;4.374;2022-12-24T06:48:44;8.50;99.90
17178;DHT22;8704;52.006;4.374;2022-12-24T06:51:14;8.40;99.90
17178;DHT22;8704;52.006;4.374;2022-12-24T06:53:42;8.40;99.90
17178;DHT22;8704;52.006;4.374;2022-12-24T06:56:12;8.40;99.90
17178;DHT22;8704;52.006;4.374;2022-12-24T06:58:42;8.40;99.90
17178;DHT22;8704;52.006;4.374;2022-12-24T07:01:12;8.40;99.90
17178;DHT22;8704;52.006;4.374;2022-12-24T07:03:41;9.10;99.90
17178;DHT22;8704;52.006;4.374;2022-12-24T07:06:16;8.30;99.90
17178;DHT22;8704;52.006;4.374;2022-12-24T07:08:44;8.30;99.90
17178;DHT22;8704;52.006;4.374;2022-12-24T07:11:12;8.10;99.90
17178;DHT22;8704;52.006;4.374;2022-12-24T07:13:42;8.10;99.90
17178;DHT22;8704;52.006;4.374;2022-12-24T07:16:10;8.10;99.90
17178;DHT22;8704;52.006;4.374;2022-12-24T07:18:38;8.10;99.90
17178;DHT22;8704;52.006;4.374;2022-12-24T07:21:06;8.10;99.90
17178;DHT22;8704;52.006;4.374;2022-12-24T07:23:34;8.10;99.90
17178;DHT22;8704;52.006;4.374;2022-12-24T07:26:04;8.20;99.90
17178;DHT22;8704;52.006;4.374;2022-12-24T07:28:32;8.10;99.90
17178;DHT22;8704;52.006;4.374;2022-12-24T07:31:02;8.20;99.90
17178;DHT22;8704;52.006;4.374;2022-12-24T07:33:30;8.20;99.90
17178;DHT22;8704;52.006;4.374;2022-12-24T07:35:59;8.30;99.90
17178;DHT22;8704;52.006;4.374;2022-12-24T07:38:28;8.20;99.90
17178;DHT22;8704;52.006;4.374;2022-12-24T07:40:57;8.10;99.90
17178;DHT22;8704;52.006;4.374;2022-12-24T07:43:25;8.10;99.90
17178;DHT22;8704;52.006;4.374;2022-12-24T07:45:54;8.80;99.90
17178;DHT22;8704;52.006;4.374;2022-12-24T07:48:26;8.10;99.90
17178;DHT22;8704;52.006;4.374;2022-12-24T07:50:56;8.20;99.90
17178;DHT22;8704;52.006;4.374;2022-12-24T07:53:24;8.20;99.90
17178;DHT22;8704;52.006;4.374;2022-12-24T07:55:53;8.50;99.90
17178;DHT22;8704;52.006;4.374;2022-12-24T07:58:22;8.20;99.90
17178;DHT22;8704;52.006;4.374;2022-12-24T08:00:54;8.20;99.90
17178;DHT22;8704;52.006;4.374;2022-12-24T08:03:23;8.20;99.90
17178;DHT22;8704;52.006;4.374;2022-12-24T08:05:52;8.20;99.90
17178;DHT22;8704;52.006;4.374;2022-12-24T08:08:20;8.20;99.90
17178;DHT22;8704;52.006;4.374;2022-12-24T08:10:49;8.20;99.90
17178;DHT22;8704;52.006;4.374;2022-12-24T08:13:17;8.20;99.90
17178;DHT22;8704;52.006;4.374;2022-12-24T08:15:45;8.50;99.90
17178;DHT22;8704;52.006;4.374;2022-12-24T08:18:13;8.20;99.90
17178;DHT22;8704;52.006;4.374;2022-12-24T08:20:41;8.20;99.90
17178;DHT22;8704;52.006;4.374;2022-12-24T08:23:10;8.20;99.90
17178;DHT22;8704;52.006;4.374;2022-12-24T08:25:41;8.30;99.90
17178;DHT22;8704;52.006;4.374;2022-12-24T08:28:09;8.20;99.90
17178;DHT22;8704;52.006;4.374;2022-12-24T08:30:37;8.20;99.90
17178;DHT22;8704;52.006;4.374;2022-12-24T08:33:06;8.30;99.90
17178;DHT22;8704;52.006;4.374;2022-12-24T08:35:34;8.30;99.90
17178;DHT22;8704;52.006;4.374;2022-12-24T08:38:02;8.20;99.90
17178;DHT22;8704;52.006;4.374;2022-12-24T08:40:31;8.30;99.90
17178;DHT22;8704;52.006;4.374;2022-12-24T08:43:00;8.30;99.90
17178;DHT22;8704;52.006;4.374;2022-12-24T08:45:28;8.30;99.90
17178;DHT22;8704;52.006;4.374;2022-12-24T08:48:05;8.90;99.90
17178;DHT22;8704;52.006;4.374;2022-12-24T08:50:34;9.20;99.90
17178;DHT22;8704;52.006;4.374;2022-12-24T08:53:02;8.50;99.90
17178;DHT22;8704;52.006;4.374;2022-12-24T08:55:31;8.60;99.90
17178;DHT22;8704;52.006;4.374;2022-12-24T08:57:59;8.60;99.90
17178;DHT22;8704;52.006;4.374;2022-12-24T09:00:28;8.60;99.90
17178;DHT22;8704;52.006;4.374;2022-12-24T09:02:56;8.60;99.90
17178;DHT22;8704;52.006;4.374;2022-12-24T09:05:24;8.70;99.90
17178;DHT22;8704;52.006;4.374;2022-12-24T09:07:52;8.70;99.90
17178;DHT22;8704;52.006;4.374;2022-12-24T09:10:20;8.80;99.90
17178;DHT22;8704;52.006;4.374;2022-12-24T09:12:50;8.80;99.90
17178;DHT22;8704;52.006;4.374;2022-12-24T09:15:18;8.80;99.90
17178;DHT22;8704;52.006;4.374;2022-12-24T09:17:46;8.90;99.90
17178;DHT22;8704;52.006;4.374;2022-12-24T09:20:14;8.80;99.90
17178;DHT22;8704;52.006;4.374;2022-12-24T09:22:42;8.90;99.90
17178;DHT22;8704;52.006;4.374;2022-12-24T09:25:10;8.90;99.90
17178;DHT22;8704;52.006;4.374;2022-12-24T09:27:38;9.00;99.90
17178;DHT22;8704;52.006;4.374;2022-12-24T09:30:09;9.00;99.90
17178;DHT22;8704;52.006;4.374;2022-12-24T09:32:37;9.00;99.90
17178;DHT22;8704;52.006;4.374;2022-12-24T09:35:05;9.00;99.90
17178;DHT22;8704;52.006;4.374;2022-12-24T09:37:33;9.00;99.90
17178;DHT22;8704;52.006;4.374;2022-12-24T09:40:01;9.00;99.90
17178;DHT22;8704;52.006;4.374;2022-12-24T09:42:38;9.10;99.90
17178;DHT22;8704;52.006;4.374;2022-12-24T09:45:15;9.10;99.90
17178;DHT22;8704;52.006;4.374;2022-12-24T09:47:48;9.20;99.90
17178;DHT22;8704;52.006;4.374;2022-12-24T09:50:28;9.20;99.90
17178;DHT22;8704;52.006;4.374;2022-12-24T09:52:57;9.30;99.90
17178;DHT22;8704;52.006;4.374;2022-12-24T09:55:31;9.30;99.90
17178;DHT22;8704;52.006;4.374;2022-12-24T09:58:01;9.40;99.90
17178;DHT22;8704;52.006;4.374;2022-12-24T10:00:36;9.40;99.90
17178;DHT22;8704;52.006;4.374;2022-12-24T10:03:13;9.40;99.90
17178;DHT22;8704;52.006;4.374;2022-12-24T10:05:46;9.50;99.90
17178;DHT22;8704;52.006;4.374;2022-12-24T10:08:22;9.50;99.90
17178;DHT22;8704;52.006;4.374;2022-12-24T10:10:53;9.50;99.90
17178;DHT22;8704;52.006;4.374;2022-12-24T10:13:31;9.50;99.90
17178;DHT22;8704;52.006;4.374;2022-12-24T10:16:10;9.50;99.90
17178;DHT22;8704;52.006;4.374;2022-12-24T10:18:47;9.50;99.90
17178;DHT22;8704;52.006;4.374;2022-12-24T10:21:24;10.00;99.90
17178;DHT22;8704;52.006;4.374;2022-12-24T10:24:01;9.70;99.90
17178;DHT22;8704;52.006;4.374;2022-12-24T10:26:49;9.60;99.90
17178;DHT22;8704;52.006;4.374;2022-12-24T10:29:23;9.60;99.90
17178;DHT22;8704;52.006;4.374;2022-12-24T10:31:59;9.60;99.90
17178;DHT22;8704;52.006;4.374;2022-12-24T10:34:30;9.60;99.90
17178;DHT22;8704;52.006;4.374;2022-12-24T10:37:00;9.60;99.90
17178;DHT22;8704;52.006;4.374;2022-12-24T10:39:32;9.60;99.90
17178;DHT22;8704;52.006;4.374;2022-12-24T10:42:01;9.60;99.90
17178;DHT22;8704;52.006;4.374;2022-12-24T10:44:31;9.50;99.90
17178;DHT22;8704;52.006;4.374;2022-12-24T10:47:01;10.50;99.90
17178;DHT22;8704;52.006;4.374;2022-12-24T10:49:34;9.60;99.90
17178;DHT22;8704;52.006;4.374;2022-12-24T10:52:05;9.60;99.90
17178;DHT22;8704;52.006;4.374;2022-12-24T10:55:05;9.50;99.90
17178;DHT22;8704;52.006;4.374;2022-12-24T10:57:34;9.50;99.90
17178;DHT22;8704;52.006;4.374;2022-12-24T11:00:03;9.50;99.90
17178;DHT22;8704;52.006;4.374;2022-12-24T11:02:35;9.50;99.90
17178;DHT22;8704;52.006;4.374;2022-12-24T11:05:06;9.50;99.90
17178;DHT22;8704;52.006;4.374;2022-12-24T11:07:34;9.50;99.90
17178;DHT22;8704;52.006;4.374;2022-12-24T11:10:05;9.60;99.90
17178;DHT22;8704;52.006;4.374;2022-12-24T11:12:36;9.60;99.90
17178;DHT22;8704;52.006;4.374;2022-12-24T11:15:14;9.40;99.90
17178;DHT22;8704;52.006;4.374;2022-12-24T11:17:52;9.50;99.90
17178;DHT22;8704;52.006;4.374;2022-12-24T11:20:23;9.60;99.90
17178;DHT22;8704;52.006;4.374;2022-12-24T11:22:53;9.70;99.90
17178;DHT22;8704;52.006;4.374;2022-12-24T11:25:24;9.60;99.90
17178;DHT22;8704;52.006;4.374;2022-12-24T11:27:55;9.60;99.90
17178;DHT22;8704;52.006;4.374;2022-12-24T11:30:29;9.60;99.90
17178;DHT22;8704;52.006;4.374;2022-12-24T11:33:30;9.70;99.90
17178;DHT22;8704;52.006;4.374;2022-12-24T11:36:03;10.60;99.90
17178;DHT22;8704;52.006;4.374;2022-12-24T11:38:34;9.70;99.90
17178;DHT22;8704;52.006;4.374;2022-12-24T11:41:05;9.80;99.90
17178;DHT22;8704;52.006;4.374;2022-12-24T11:43:39;9.80;99.90
17178;DHT22;8704;52.006;4.374;2022-12-24T11:46:17;9.80;99.90
17178;DHT22;8704;52.006;4.374;2022-12-24T11:48:48;9.80;99.90
17178;DHT22;8704;52.006;4.374;2022-12-24T11:51:34;10.10;99.90
17178;DHT22;8704;52.006;4.374;2022-12-24T11:54:10;9.90;99.90
17178;DHT22;8704;52.006;4.374;2022-12-24T11:56:43;9.90;99.90
17178;DHT22;8704;52.006;4.374;2022-12-24T11:59:17;10.00;99.90
17178;DHT22;8704;52.006;4.374;2022-12-24T12:01:54;9.90;99.90
17178;DHT22;8704;52.006;4.374;2022-12-24T12:04:28;10.00;99.90
17178;DHT22;8704;52.006;4.374;2022-12-24T12:06:59;10.50;99.90
17178;DHT22;8704;52.006;4.374;2022-12-24T12:09:31;10.00;99.90
17178;DHT22;8704;52.006;4.374;2022-12-24T12:12:04;10.00;99.90
17178;DHT22;8704;52.006;4.374;2022-12-24T12:14:36;10.00;99.90
17178;DHT22;8704;52.006;4.374;2022-12-24T12:17:13;10.00;99.90
17178;DHT22;8704;52.006;4.374;2022-12-24T12:19:47;10.00;99.90
17178;DHT22;8704;52.006;4.374;2022-12-24T12:22:23;10.00;99.90
17178;DHT22;8704;52.006;4.374;2022-12-24T12:24:56;10.20;99.90
17178;DHT22;8704;52.006;4.374;2022-12-24T12:27:29;10.10;99.90
17178;DHT22;8704;52.006;4.374;2022-12-24T12:30:03;10.20;99.90
17178;DHT22;8704;52.006;4.374;2022-12-24T12:32:41;10.10;99.90
17178;DHT22;8704;52.006;4.374;2022-12-24T12:35:22;10.10;99.90
17178;DHT22;8704;52.006;4.374;2022-12-24T12:37:56;10.20;99.90
17178;DHT22;8704;52.006;4.374;2022-12-24T12:40:36;10.20;99.90
17178;DHT22;8704;52.006;4.374;2022-12-24T12:43:12;10.20;99.90
17178;DHT22;8704;52.006;4.374;2022-12-24T12:45:47;10.20;99.90
17178;DHT22;8704;52.006;4.374;2022-12-24T12:48:34;10.30;99.90
17178;DHT22;8704;52.006;4.374;2022-12-24T12:51:08;10.30;99.90
17178;DHT22;8704;52.006;4.374;2022-12-24T12:53:52;10.30;99.90
17178;DHT22;8704;52.006;4.374;2022-12-24T12:56:29;10.30;99.90
17178;DHT22;8704;52.006;4.374;2022-12-24T12:59:01;10.30;99.90
17178;DHT22;8704;52.006;4.374;2022-12-24T13:01:41;10.70;99.90
17178;DHT22;8704;52.006;4.374;2022-12-24T13:10:49;10.30;99.90
17178;DHT22;8704;52.006;4.374;2022-12-24T13:13:35;10.40;99.90
17178;DHT22;8704;52.006;4.374;2022-12-24T13:19:19;10.50;99.90
17178;DHT22;8704;52.006;4.374;2022-12-24T13:21:48;10.50;99.90
17178;DHT22;8704;52.006;4.374;2022-12-24T13:24:21;10.50;99.90
17178;DHT22;8704;52.006;4.374;2022-12-24T13:27:02;10.50;99.90
17178;DHT22;8704;52.006;4.374;2022-12-24T13:29:43;10.60;99.90
17178;DHT22;8704;52.006;4.374;2022-12-24T13:32:38;10.70;99.90
17178;DHT22;8704;52.006;4.374;2022-12-24T13:35:36;10.70;99.90
17178;DHT22;8704;52.006;4.374;2022-12-24T13:41:49;10.80;99.90
17178;DHT22;8704;52.006;4.374;2022-12-24T13:44:25;10.90;99.90
17178;DHT22;8704;52.006;4.374;2022-12-24T13:47:17;10.90;99.90
17178;DHT22;8704;52.006;4.374;2022-12-24T13:49:54;11.00;99.90
17178;DHT22;8704;52.006;4.374;2022-12-24T13:52:29;11.00;99.90
17178;DHT22;8704;52.006;4.374;2022-12-24T13:55:15;11.00;99.90
17178;DHT22;8704;52.006;4.374;2022-12-24T13:57:53;11.00;99.90
17178;DHT22;8704;52.006;4.374;2022-12-24T14:00:27;11.00;99.90
17178;DHT22;8704;52.006;4.374;2022-12-24T14:03:00;11.00;99.90
17178;DHT22;8704;52.006;4.374;2022-12-24T14:05:32;11.10;99.90
17178;DHT22;8704;52.006;4.374;2022-12-24T14:08:04;11.00;99.90
17178;DHT22;8704;52.006;4.374;2022-12-24T14:10:37;11.00;99.90
17178;DHT22;8704;52.006;4.374;2022-12-24T14:16:12;11.10;99.90
17178;DHT22;8704;52.006;4.374;2022-12-24T14:18:44;11.00;99.90
17178;DHT22;8704;52.006;4.374;2022-12-24T14:21:17;11.00;99.90
17178;DHT22;8704;52.006;4.374;2022-12-24T14:23:54;10.80;99.90
17178;DHT22;8704;52.006;4.374;2022-12-24T14:26:26;10.90;99.90
17178;DHT22;8704;52.006;4.374;2022-12-24T14:28:58;10.90;99.90
17178;DHT22;8704;52.006;4.374;2022-12-24T14:31:27;10.90;99.90
17178;DHT22;8704;52.006;4.374;2022-12-24T14:34:05;10.80;99.90
17178;DHT22;8704;52.006;4.374;2022-12-24T14:36:34;10.80;99.90
17178;DHT22;8704;52.006;4.374;2022-12-24T14:39:05;10.80;99.90
17178;DHT22;8704;52.006;4.374;2022-12-24T14:41:39;10.80;99.90
17178;DHT22;8704;52.006;4.374;2022-12-24T14:44:20;11.30;99.90
17178;DHT22;8704;52.006;4.374;2022-12-24T14:46:52;10.80;99.90
17178;DHT22;8704;52.006;4.374;2022-12-24T14:49:32;10.70;99.90
17178;DHT22;8704;52.006;4.374;2022-12-24T14:52:13;10.60;99.90
17178;DHT22;8704;52.006;4.374;2022-12-24T14:55:26;10.60;99.90
17178;DHT22;8704;52.006;4.374;2022-12-24T14:58:15;10.50;99.90
17178;DHT22;8704;52.006;4.374;2022-12-24T15:00:46;10.50;99.90
17178;DHT22;8704;52.006;4.374;2022-12-24T15:03:15;10.50;99.90
17178;DHT22;8704;52.006;4.374;2022-12-24T15:05:44;10.50;99.90
17178;DHT22;8704;52.006;4.374;2022-12-24T15:08:20;10.50;99.90
17178;DHT22;8704;52.006;4.374;2022-12-24T15:10:52;10.20;99.90
17178;DHT22;8704;52.006;4.374;2022-12-24T15:13:25;10.30;99.90
17178;DHT22;8704;52.006;4.374;2022-12-24T15:16:05;10.20;99.90
17178;DHT22;8704;52.006;4.374;2022-12-24T15:18:37;10.20;99.90
17178;DHT22;8704;52.006;4.374;2022-12-24T15:21:07;10.10;99.90
17178;DHT22;8704;52.006;4.374;2022-12-24T15:23:47;10.00;99.90
17178;DHT22;8704;52.006;4.374;2022-12-24T15:26:23;10.00;99.90
17178;DHT22;8704;52.006;4.374;2022-12-24T15:28:54;9.90;99.90
17178;DHT22;8704;52.006;4.374;2022-12-24T15:31:30;9.90;99.90
17178;DHT22;8704;52.006;4.374;2022-12-24T15:33:58;9.80;99.90
17178;DHT22;8704;52.006;4.374;2022-12-24T15:36:28;9.80;99.90
17178;DHT22;8704;52.006;4.374;2022-12-24T15:39:00;9.90;99.90
17178;DHT22;8704;52.006;4.374;2022-12-24T15:41:34;9.60;99.90
17178;DHT22;8704;52.006;4.374;2022-12-24T15:44:04;9.80;99.90
17178;DHT22;8704;52.006;4.374;2022-12-24T15:46:33;9.50;99.90
17178;DHT22;8704;52.006;4.374;2022-12-24T15:49:02;9.50;99.90
17178;DHT22;8704;52.006;4.374;2022-12-24T15:51:33;9.50;99.90
17178;DHT22;8704;52.006;4.374;2022-12-24T15:54:12;9.40;99.90
17178;DHT22;8704;52.006;4.374;2022-12-24T15:56:46;9.40;99.90
17178;DHT22;8704;52.006;4.374;2022-12-24T15:59:26;9.90;99.90
17178;DHT22;8704;52.006;4.374;2022-12-24T16:02:23;9.20;99.90
17178;DHT22;8704;52.006;4.374;2022-12-24T16:08:20;9.10;99.90
17178;DHT22;8704;52.006;4.374;2022-12-24T16:10:50;9.00;99.90
17178;DHT22;8704;52.006;4.374;2022-12-24T16:13:21;9.10;99.90
17178;DHT22;8704;52.006;4.374;2022-12-24T16:15:52;8.90;99.90
17178;DHT22;8704;52.006;4.374;2022-12-24T16:18:25;8.90;99.90
17178;DHT22;8704;52.006;4.374;2022-12-24T16:20:55;8.90;99.90
17178;DHT22;8704;52.006;4.374;2022-12-24T16:23:25;8.80;99.90
17178;DHT22;8704;52.006;4.374;2022-12-24T16:25:53;8.80;99.90
17178;DHT22;8704;52.006;4.374;2022-12-24T16:28:21;8.70;99.90
17178;DHT22;8704;52.006;4.374;2022-12-24T16:30:49;8.70;99.90
17178;DHT22;8704;52.006;4.374;2022-12-24T16:33:19;8.80;99.90
17178;DHT22;8704;52.006;4.374;2022-12-24T16:35:50;8.70;99.90
17178;DHT22;8704;52.006;4.374;2022-12-24T16:38:18;8.70;99.90
17178;DHT22;8704;52.006;4.374;2022-12-24T16:40:47;8.70;99.90
17178;DHT22;8704;52.006;4.374;2022-12-24T16:43:14;8.60;99.90
17178;DHT22;8704;52.006;4.374;2022-12-24T16:46:02;8.60;99.90
17178;DHT22;8704;52.006;4.374;2022-12-24T16:48:31;8.50;99.90
17178;DHT22;8704;52.006;4.374;2022-12-24T16:51:03;8.50;99.90